Time;durP1;ratioP1;P1;durP2;ratioP2;P2;SDS_P1;SDS_P2;PMS_P1;PMS_P2;Temp;Humidity;BMP_temperature;BMP_pressure;BME280_temperature;BME280_humidity;BME280_pressure;Samples;Min_cycle;Max_cycle;Signal;HPM_P1;HPM_P2
2022/09/05 00:01:53;;;;;;;8.80;3.50;;;;;;;15.54;71.90;101965.94;4896532;29;20061;-79
2022/09/05 00:04:36;;;;;;;3.78;3.47;;;;;;;15.53;72.03;101970.56;4895687;29;20061;-79
2022/09/05 00:07:30;;;;;;;3.45;3.20;;;;;;;15.49;72.24;101967.28;4896274;29;20044;-79
2022/09/05 00:10:33;;;;;;;3.22;3.03;;;;;;;15.46;72.56;101965.47;4927046;28;20480;-79
2022/09/05 00:13:30;;;;;;;4.22;3.22;;;;;;;15.47;72.03;101966.22;4975206;28;20055;-79
2022/09/05 00:16:17;;;;;;;3.28;2.97;;;;;;;15.42;72.42;101964.88;4975063;28;20523;-79
2022/09/05 00:19:05;;;;;;;3.92;3.28;;;;;;;15.39;72.69;101954.28;4989171;28;20051;-79
2022/09/05 00:22:10;;;;;;;3.30;3.10;;;;;;;15.40;72.56;101956.50;4975001;28;20055;-80
2022/09/05 00:25:10;;;;;;;3.40;3.20;;;;;;;15.31;72.98;101959.16;4974357;28;20093;-79
2022/09/05 00:28:18;;;;;;;5.68;3.60;;;;;;;15.24;73.18;101956.75;4974916;28;20051;-79
2022/09/05 00:31:01;;;;;;;10.27;3.65;;;;;;;15.19;73.63;101960.78;4974623;28;20152;-80
2022/09/05 00:33:47;;;;;;;7.43;3.17;;;;;;;15.17;73.78;101954.38;4974922;28;20075;-79
2022/09/05 00:36:38;;;;;;;3.70;3.40;;;;;;;15.16;73.66;101953.63;4974739;28;20110;-79
2022/09/05 00:39:33;;;;;;;4.07;2.90;;;;;;;15.14;73.39;101950.63;4974479;28;20047;-79
2022/09/05 00:42:06;;;;;;;3.05;2.85;;;;;;;15.11;73.87;101948.84;4971598;28;20547;-79
2022/09/05 00:44:36;;;;;;;23.33;3.53;;;;;;;15.08;73.98;101949.72;4974662;28;20043;-79
2022/09/05 00:47:16;;;;;;;6.00;3.47;;;;;;;15.05;74.37;101949.84;4974113;28;20051;-79
2022/09/05 00:49:51;;;;;;;6.20;3.20;;;;;;;15.04;74.54;101951.03;4974500;28;20110;-79
2022/09/05 00:52:27;;;;;;;7.07;3.40;;;;;;;15.03;74.87;101950.28;4973093;28;20166;-80
2022/09/05 00:55:10;;;;;;;4.95;3.45;;;;;;;15.00;74.87;101943.13;4972829;28;20055;-79
2022/09/05 00:57:53;;;;;;;3.95;3.38;;;;;;;15.00;74.88;101943.13;4974337;28;20051;-79
2022/09/05 01:00:43;;;;;;;4.35;3.70;;;;;;;15.01;75.24;101944.63;4974144;28;20377;-79
2022/09/05 01:03:16;;;;;;;3.58;3.30;;;;;;;14.98;75.11;101953.53;4973856;28;20098;-79
2022/09/05 01:06:05;;;;;;;9.13;3.72;;;;;;;14.96;76.17;101955.91;4974256;28;20105;-79
2022/09/05 01:08:53;;;;;;;5.20;3.22;;;;;;;14.94;75.46;101944.88;4984503;28;20046;-79
2022/09/05 01:11:41;;;;;;;3.78;3.35;;;;;;;14.92;75.84;101952.59;4993323;28;20055;-79
2022/09/05 01:14:34;;;;;;;5.97;3.50;;;;;;;14.89;76.29;101948.13;4993426;28;20046;-79
2022/09/05 01:17:25;;;;;;;3.10;2.90;;;;;;;14.84;76.54;101948.69;4992775;28;20038;-79
2022/09/05 01:20:06;;;;;;;4.22;3.20;;;;;;;14.78;77.26;101937.06;4992544;28;20098;-79
2022/09/05 01:23:17;;;;;;;5.97;3.30;;;;;;;14.75;76.74;101935.25;4992181;28;20539;-79
2022/09/05 01:25:43;;;;;;;4.47;3.35;;;;;;;14.74;77.34;101945.25;4993557;28;20100;-79
2022/09/05 01:28:52;;;;;;;7.38;3.50;;;;;;;14.75;76.93;101946.75;4991739;28;20047;-79
2022/09/05 01:31:58;;;;;;;6.05;3.60;;;;;;;14.71;76.87;101940.00;4993238;28;20122;-78
2022/09/05 01:34:48;;;;;;;4.03;3.63;;;;;;;14.67;77.36;101948.91;4993230;28;20527;-79
2022/09/05 01:37:43;;;;;;;3.78;3.47;;;;;;;14.65;77.15;101951.28;4993291;28;20042;-79
2022/09/05 01:40:41;;;;;;;3.72;3.53;;;;;;;14.61;77.36;101941.88;4991965;28;20042;-79
2022/09/05 01:43:58;;;;;;;3.53;3.28;;;;;;;14.62;77.46;101943.38;4993315;28;20046;-79
2022/09/05 01:46:51;;;;;;;3.95;3.40;;;;;;;14.58;77.92;101942.75;4991051;28;20358;-80
2022/09/05 01:49:31;;;;;;;4.20;3.90;;;;;;;14.51;77.86;101946.44;4993196;28;20049;-79
2022/09/05 01:52:32;;;;;;;3.50;3.30;;;;;;;14.44;77.46;101944.00;4992958;28;20039;-79
2022/09/05 01:55:30;;;;;;;5.10;3.47;;;;;;;14.44;76.99;101937.91;4992622;28;20130;-79
2022/09/05 01:58:18;;;;;;;6.43;3.50;;;;;;;14.42;78.18;101942.94;4912966;29;20536;-79
2022/09/05 02:01:13;;;;;;;4.90;3.50;;;;;;;14.32;78.08;101942.88;4897406;29;20100;-79
2022/09/05 02:04:19;;;;;;;4.55;4.00;;;;;;;14.29;78.26;101945.66;4871909;29;20136;-79
2022/09/05 02:07:07;;;;;;;4.95;4.55;;;;;;;14.28;77.97;101946.84;4878227;29;20494;-79
2022/09/05 02:10:02;;;;;;;6.35;4.28;;;;;;;14.27;78.58;101943.44;4893638;29;20080;-79
2022/09/05 02:12:55;;;;;;;6.32;4.70;;;;;;;14.28;78.41;101941.50;4894547;29;20057;-79
2022/09/05 02:15:41;;;;;;;5.35;4.50;;;;;;;14.27;77.86;101943.44;4893352;29;20065;-79
2022/09/05 02:19:13;;;;;;;4.30;4.00;;;;;;;14.26;77.77;101954.56;4878554;29;20053;-79
2022/09/05 02:21:53;;;;;;;5.43;4.72;;;;;;;14.26;78.87;101951.91;4837935;29;20063;-79
2022/09/05 02:24:31;;;;;;;5.13;4.75;;;;;;;14.21;79.25;101947.84;4837193;29;20058;-79
2022/09/05 02:27:20;;;;;;;5.10;4.70;;;;;;;14.18;78.97;101946.03;4838233;29;20062;-79
2022/09/05 02:30:12;;;;;;;5.47;4.63;;;;;;;14.19;79.33;101952.13;4838598;29;20129;-79
2022/09/05 02:33:20;;;;;;;5.00;4.07;;;;;;;14.19;79.07;101950.22;4838499;29;20103;-79
2022/09/05 02:35:58;;;;;;;4.25;3.95;;;;;;;14.09;79.92;101939.84;4901257;29;20065;-79
2022/09/05 02:38:34;;;;;;;4.80;4.45;;;;;;;14.10;79.03;101947.44;4896194;29;20089;-79
2022/09/05 02:42:08;;;;;;;4.45;3.90;;;;;;;14.11;78.86;101942.84;4912940;29;20132;-79
2022/09/05 02:45:11;;;;;;;4.40;4.10;;;;;;;14.10;79.69;101942.09;4875029;29;20089;-78
2022/09/05 02:48:17;;;;;;;4.07;3.88;;;;;;;14.08;79.33;101943.72;4875263;29;20839;-78
2022/09/05 02:50:51;;;;;;;4.05;3.75;;;;;;;14.04;80.20;101943.81;4875381;29;20114;-79
2022/09/05 02:53:41;;;;;;;5.03;4.53;;;;;;;14.02;79.92;101935.47;4931953;29;20056;-79
2022/09/05 02:56:44;;;;;;;5.88;3.97;;;;;;;13.98;79.78;101938.31;4931381;29;20068;-78
2022/09/05 03:00:10;;;;;;;5.00;4.50;;;;;;;13.90;79.89;101945.06;4931968;29;20056;-78
2022/09/05 03:03:11;;;;;;;5.40;4.63;;;;;;;13.87;79.61;101940.59;4931865;29;20589;-79
2022/09/05 03:06:04;;;;;;;6.45;4.22;;;;;;;13.86;80.27;101949.03;4947551;28;20556;-79
2022/09/05 03:08:37;;;;;;;8.05;4.90;;;;;;;13.80;80.71;101953.44;4915518;29;20056;-78
2022/09/05 03:11:36;;;;;;;6.32;5.75;;;;;;;13.73;80.56;101954.41;4931427;29;20048;-79
2022/09/05 03:14:34;;;;;;;6.25;5.65;;;;;;;13.68;80.11;101950.34;4931728;28;20063;-79
2022/09/05 03:17:38;;;;;;;6.10;5.53;;;;;;;13.64;80.45;101951.66;4971106;28;20058;-79
2022/09/05 03:20:27;;;;;;;11.13;6.60;;;;;;;13.62;80.98;101946.72;4972287;28;20047;-78
2022/09/05 03:23:09;;;;;;;11.65;6.47;;;;;;;13.64;80.97;101951.66;5003534;28;20894;-78
2022/09/05 03:25:57;;;;;;;6.30;5.80;;;;;;;13.63;81.48;101952.81;4972233;28;20044;-79
2022/09/05 03:28:59;;;;;;;8.10;6.15;;;;;;;13.65;81.16;101953.16;4975373;28;20134;-78
2022/09/05 03:31:34;;;;;;;7.07;6.10;;;;;;;13.64;81.22;101949.72;4975616;28;20055;-78
2022/09/05 03:34:37;;;;;;;6.57;6.07;;;;;;;13.60;80.77;101943.72;4975618;28;20114;-78
2022/09/05 03:37:20;;;;;;;7.78;6.07;;;;;;;13.63;81.51;101947.47;4975403;28;20051;-79
2022/09/05 03:40:19;;;;;;;7.03;6.32;;;;;;;13.64;81.81;101947.03;4975539;28;20110;-78
2022/09/05 03:43:24;;;;;;;6.30;5.45;;;;;;;13.65;81.62;101950.47;4975985;28;20051;-79
2022/09/05 03:46:10;;;;;;;8.43;5.90;;;;;;;13.58;82.02;101951.47;4975637;28;20047;-78
2022/09/05 03:48:45;;;;;;;6.60;5.88;;;;;;;13.53;81.90;101957.34;4975641;28;20626;-78
2022/09/05 03:51:40;;;;;;;10.25;6.07;;;;;;;13.54;81.57;101958.09;4975263;28;20043;-78
2022/09/05 03:54:57;;;;;;;6.60;5.95;;;;;;;13.51;82.56;101953.59;4973844;28;20534;-78
2022/09/05 03:58:10;;;;;;;6.78;6.18;;;;;;;13.50;82.07;101955.53;4974917;28;20170;-78
2022/09/05 04:01:02;;;;;;;6.57;6.05;;;;;;;13.46;82.06;101952.22;4975070;28;20488;-78
2022/09/05 04:04:00;;;;;;;14.68;6.75;;;;;;;13.46;83.00;101943.44;4974965;28;20110;-79
2022/09/05 04:06:54;;;;;;;11.07;6.38;;;;;;;13.45;82.51;101949.97;4975623;28;20110;-79
2022/09/05 04:09:56;;;;;;;8.05;7.03;;;;;;;13.47;82.45;101958.31;4974580;28;20614;-79
2022/09/05 04:12:55;;;;;;;10.57;6.80;;;;;;;13.44;82.32;101954.56;4975248;28;20106;-79
2022/09/05 04:15:33;;;;;;;8.70;6.05;;;;;;;13.45;82.61;101958.00;4975220;28;20043;-78
2022/09/05 04:18:25;;;;;;;6.55;5.95;;;;;;;13.42;82.68;101958.84;4964843;28;20063;-79
2022/09/05 04:21:08;;;;;;;8.35;5.93;;;;;;;13.40;82.47;101967.31;4955589;28;20048;-78
2022/09/05 04:23:40;;;;;;;5.70;5.28;;;;;;;13.40;82.96;101964.63;4954861;28;20063;-78
2022/09/05 04:26:19;;;;;;;6.22;5.50;;;;;;;13.38;82.44;101952.88;4961522;28;20043;-79
2022/09/05 04:28:58;;;;;;;6.50;5.03;;;;;;;13.35;82.68;101960.56;4974439;28;20047;-79
2022/09/05 04:31:46;;;;;;;5.55;5.03;;;;;;;13.33;82.53;101960.25;4974830;28;20107;-80
2022/09/05 04:34:39;;;;;;;6.00;5.50;;;;;;;13.30;82.67;101953.06;4975220;28;20055;-79
2022/09/05 04:37:08;;;;;;;6.53;5.30;;;;;;;13.30;83.08;101960.34;4974271;28;20086;-77
2022/09/05 04:39:35;;;;;;;8.93;5.13;;;;;;;13.26;83.28;101960.47;4973278;28;20047;-78
2022/09/05 04:42:05;;;;;;;9.70;4.82;;;;;;;13.23;83.04;101957.88;4973129;28;20047;-79
2022/09/05 04:44:44;;;;;;;5.85;5.00;;;;;;;13.22;82.63;101961.72;4973874;28;20048;-79
2022/09/05 04:47:16;;;;;;;5.97;5.45;;;;;;;13.22;83.54;101962.47;4974516;28;20047;-78
2022/09/05 04:50:05;;;;;;;7.38;5.07;;;;;;;13.22;82.90;101956.38;4974489;28;20051;-79
2022/09/05 04:52:51;;;;;;;7.10;5.57;;;;;;;13.22;82.57;101967.09;4972945;28;20114;-79
2022/09/05 04:55:29;;;;;;;7.55;4.82;;;;;;;13.20;82.67;101975.53;4974768;28;20047;-79
2022/09/05 04:58:01;;;;;;;7.28;5.45;;;;;;;13.17;83.09;101973.75;4988737;28;20393;-78
2022/09/05 05:00:50;;;;;;;7.43;5.80;;;;;;;13.15;82.66;101980.66;4974151;28;20055;-79
2022/09/05 05:03:38;;;;;;;8.07;5.88;;;;;;;13.09;83.22;101980.44;4974329;28;20071;-76
2022/09/05 05:06:31;;;;;;;6.47;5.93;;;;;;;13.13;83.12;101980.34;4973291;28;20082;-76
2022/09/05 05:09:18;;;;;;;10.88;5.78;;;;;;;13.13;83.24;101973.06;4973139;28;20058;-77
2022/09/05 05:11:55;;;;;;;8.10;6.00;;;;;;;13.15;83.41;101973.38;4974094;28;20535;-79
2022/09/05 05:14:50;;;;;;;10.80;5.78;;;;;;;13.17;83.08;101968.38;4974087;28;20115;-77
2022/09/05 05:18:15;;;;;;;10.80;5.50;;;;;;;13.21;83.07;101973.59;4974269;28;20047;-77
2022/09/05 05:21:24;;;;;;;6.75;5.82;;;;;;;13.22;83.05;101978.53;4932598;29;20060;-76
2022/09/05 05:24:00;;;;;;;8.02;5.53;;;;;;;13.26;83.28;101971.16;4914429;29;20069;-77
2022/09/05 05:26:47;;;;;;;7.45;5.60;;;;;;;13.27;83.14;101977.25;4918623;29;20595;-77
2022/09/05 05:29:44;;;;;;;7.97;6.03;;;;;;;13.29;83.63;101980.25;4933033;29;20120;-77
2022/09/05 05:32:32;;;;;;;7.55;5.88;;;;;;;13.34;83.07;101964.41;4932659;29;20052;-77
2022/09/05 05:35:17;;;;;;;17.08;7.50;;;;;;;13.38;84.16;101967.00;4926661;29;20064;-77
2022/09/05 05:37:49;;;;;;;25.73;7.85;;;;;;;13.41;83.93;101971.47;4932023;29;20513;-77
2022/09/05 05:40:15;;;;;;;25.27;8.15;;;;;;;13.46;83.72;101972.88;4917481;29;20120;-77
2022/09/05 05:42:44;;;;;;;25.38;7.82;;;;;;;13.52;84.03;101973.84;4932936;29;20056;-77
2022/09/05 05:45:31;;;;;;;16.52;8.32;;;;;;;13.60;83.18;101973.16;4916039;29;20144;-75
2022/09/05 05:48:04;;;;;;;21.00;7.63;;;;;;;13.67;83.33;101964.91;4932716;29;20115;-75
2022/09/05 05:51:02;;;;;;;12.60;7.50;;;;;;;13.78;82.93;101969.94;4931051;29;20063;-76
2022/09/05 05:53:48;;;;;;;19.52;7.38;;;;;;;13.91;82.97;101978.69;4932602;29;20540;-75
2022/09/05 05:56:39;;;;;;;17.85;7.60;;;;;;;14.06;82.90;101978.94;4932873;29;20052;-75
2022/09/05 05:59:41;;;;;;;12.60;7.35;;;;;;;16.15;79.56;101988.41;4953899;28;20047;-75
2022/09/05 06:02:44;;;;;;;13.07;7.30;;;;;;;18.82;68.02;101990.03;4954165;28;20049;-75
2022/09/05 06:05:34;;;;;;;6.88;6.28;;;;;;;19.41;62.92;101987.94;4953729;28;20043;-76
2022/09/05 06:08:24;;;;;;;9.65;7.53;;;;;;;20.78;58.80;101993.88;4968306;28;20052;-75
2022/09/05 06:11:45;;;;;;;11.45;7.72;;;;;;;21.98;56.42;101992.78;4953985;28;20083;-75
2022/09/05 06:15:02;;;;;;;16.15;7.93;;;;;;;22.27;54.02;101999.78;4979620;28;20078;-75
2022/09/05 06:17:58;;;;;;;15.60;8.27;;;;;;;22.53;52.73;102000.28;4953880;28;20052;-78
2022/09/05 06:20:34;;;;;;;14.80;8.40;;;;;;;22.66;52.58;101999.81;4953454;28;20055;-79
2022/09/05 06:23:44;;;;;;;19.08;8.98;;;;;;;22.44;53.70;102000.50;4968018;28;20060;-79
2022/09/05 06:26:53;;;;;;;12.25;8.25;;;;;;;22.31;54.60;102000.28;4962312;28;20048;-81
2022/09/05 06:29:38;;;;;;;9.88;8.50;;;;;;;21.74;56.17;102003.28;4982244;28;20468;-83
2022/09/05 06:32:20;;;;;;;13.10;9.70;;;;;;;21.44;57.39;102002.91;4973250;28;20098;-80
2022/09/05 06:34:59;;;;;;;14.40;10.93;;;;;;;20.88;59.45;102005.25;4973218;28;20591;-80
2022/09/05 06:37:58;;;;;;;11.75;9.23;;;;;;;20.45;61.09;102013.25;4972827;28;20051;-77
2022/09/05 06:40:36;;;;;;;13.13;9.40;;;;;;;20.31;62.40;102019.50;4971177;28;20055;-77
2022/09/05 06:43:41;;;;;;;17.48;10.80;;;;;;;20.22;63.42;102017.69;4972755;28;20103;-78
2022/09/05 06:46:25;;;;;;;14.70;10.38;;;;;;;20.05;64.89;102024.84;4942522;28;20055;-78
2022/09/05 06:49:24;;;;;;;16.45;10.55;;;;;;;20.12;65.53;102019.03;4972232;28;20584;-78
2022/09/05 06:52:03;;;;;;;13.05;11.75;;;;;;;20.12;65.22;102027.16;4972569;28;20055;-78
2022/09/05 06:55:26;;;;;;;17.95;12.35;;;;;;;20.18;65.84;102027.97;4972319;28;20468;-81
2022/09/05 06:58:30;;;;;;;16.10;12.23;;;;;;;20.24;66.23;102026.06;4972554;28;20056;-81
2022/09/05 07:00:59;;;;;;;14.20;11.57;;;;;;;20.35;65.61;102024.69;4971227;28;20166;-80
2022/09/05 07:03:54;;;;;;;17.00;11.85;;;;;;;20.37;66.03;102027.66;4974582;28;20069;-80
2022/09/05 07:06:33;;;;;;;17.17;11.82;;;;;;;20.47;66.23;102027.03;4974212;28;20107;-80
2022/09/05 07:09:25;;;;;;;15.70;11.93;;;;;;;20.61;66.18;102020.78;4975438;28;20118;-81
2022/09/05 07:12:01;;;;;;;14.38;11.77;;;;;;;20.61;66.55;102020.78;4975645;28;20062;-81
2022/09/05 07:14:33;;;;;;;16.95;11.80;;;;;;;20.69;66.25;102017.66;4975570;28;20047;-81
2022/09/05 07:17:13;;;;;;;18.98;12.15;;;;;;;20.72;66.40;102028.25;4975393;28;20067;-81
2022/09/05 07:19:59;;;;;;;19.92;11.70;;;;;;;20.73;66.54;102018.91;4974950;28;20503;-81
2022/09/05 07:22:32;;;;;;;17.52;11.80;;;;;;;20.82;67.10;102010.59;4975367;28;20047;-81
2022/09/05 07:25:27;;;;;;;20.10;11.60;;;;;;;20.95;66.14;102026.47;4975625;28;20047;-80
2022/09/05 07:28:25;;;;;;;18.83;11.07;;;;;;;21.01;66.78;102012.97;4973555;28;20055;-79
2022/09/05 07:31:01;;;;;;;23.58;11.30;;;;;;;21.18;65.69;102017.28;4974174;28;20067;-82
2022/09/05 07:33:30;;;;;;;16.02;10.27;;;;;;;21.31;64.53;102019.59;4974988;28;20074;-78
2022/09/05 07:36:07;;;;;;;15.45;10.25;;;;;;;21.44;64.31;102019.91;4975613;28;20503;-79
2022/09/05 07:38:36;;;;;;;13.15;9.48;;;;;;;21.59;64.50;102014.34;4974976;28;20047;-78
2022/09/05 07:41:27;;;;;;;11.30;10.20;;;;;;;21.69;63.73;102021.00;4975031;28;20082;-79
2022/09/05 07:44:05;;;;;;;12.45;9.30;;;;;;;21.83;63.43;102020.09;4975151;28;20047;-79
2022/09/05 07:46:36;;;;;;;21.58;9.35;;;;;;;22.00;63.49;102022.84;4974803;28;20047;-79
2022/09/05 07:49:07;;;;;;;12.18;9.75;;;;;;;22.13;62.89;102025.13;4975127;28;20062;-81
2022/09/05 07:51:36;;;;;;;11.43;9.80;;;;;;;22.31;62.13;102024.69;4975230;28;20098;-79
2022/09/05 07:54:26;;;;;;;12.80;8.45;;;;;;;22.51;61.19;102031.84;4973422;28;20150;-80
2022/09/05 07:57:40;;;;;;;13.63;8.95;;;;;;;22.67;60.43;102030.41;4973950;28;20062;-81
2022/09/05 08:00:20;;;;;;;9.77;7.75;;;;;;;22.88;59.14;102031.63;4975492;28;20522;-80
2022/09/05 08:02:53;;;;;;;14.57;7.53;;;;;;;23.06;58.63;102031.13;4974436;28;20043;-79
2022/09/05 08:05:24;;;;;;;7.97;7.07;;;;;;;23.16;58.07;102040.50;4974665;28;20054;-79
2022/09/05 08:08:07;;;;;;;12.20;7.17;;;;;;;23.29;57.99;102046.16;4974818;28;20476;-78
2022/09/05 08:10:42;;;;;;;9.02;6.63;;;;;;;23.49;56.90;102038.94;4974742;28;20118;-78
2022/09/05 08:14:02;;;;;;;11.65;6.60;;;;;;;23.78;56.99;102043.06;4973710;28;20043;-78
2022/09/05 08:16:49;;;;;;;8.52;5.75;;;;;;;23.95;56.09;102043.75;4974391;28;20071;-79
2022/09/05 08:19:42;;;;;;;6.72;6.15;;;;;;;24.13;54.99;102045.84;4974581;28;20048;-78
2022/09/05 08:22:19;;;;;;;6.20;5.60;;;;;;;24.35;54.40;102052.44;4972585;28;20059;-79
2022/09/05 08:25:07;;;;;;;7.38;5.30;;;;;;;24.52;53.88;102053.06;4974774;28;20055;-78
2022/09/05 08:27:47;;;;;;;9.00;5.40;;;;;;;24.61;52.96;102050.03;4974440;28;20494;-79
2022/09/05 08:30:14;;;;;;;8.32;5.30;;;;;;;24.65;52.88;102049.75;4974349;28;20141;-78
2022/09/05 08:33:08;;;;;;;11.20;5.28;;;;;;;24.78;52.30;102049.91;4973165;28;20415;-76
2022/09/05 08:35:53;;;;;;;11.73;5.20;;;;;;;24.93;53.61;102056.44;4974561;28;20503;-78
2022/09/05 08:38:31;;;;;;;3.85;3.55;;;;;;;25.08;51.40;102052.63;4973250;28;20126;-78
2022/09/05 08:41:27;;;;;;;5.55;3.50;;;;;;;25.12;50.17;102056.56;4973963;28;20111;-78
2022/09/05 08:44:30;;;;;;;7.70;3.88;;;;;;;25.10;51.05;102056.31;4974251;28;20051;-77
2022/09/05 08:47:35;;;;;;;4.72;3.10;;;;;;;25.22;49.08;102052.22;4974380;28;20536;-78
2022/09/05 08:50:19;;;;;;;4.60;2.72;;;;;;;25.30;49.03;102044.22;4973019;28;20456;-73
2022/09/05 08:53:01;;;;;;;;;;;;;;;25.58;50.35;102047.38;4974559;28;20044;-75
2022/09/05 08:56:03;;;;;;;9.35;2.78;;;;;;;25.82;47.22;102032.97;4974260;28;19962;-74
2022/09/05 08:59:00;;;;;;;6.00;2.20;;;;;;;25.89;45.73;102031.66;4973881;28;20098;-75
2022/09/05 09:02:18;;;;;;;2.25;2.00;;;;;;;26.00;45.74;102025.28;4974095;28;20476;-74
2022/09/05 09:05:08;;;;;;;3.83;2.33;;;;;;;26.08;43.83;102024.19;4973703;28;20632;-74
2022/09/05 09:07:54;;;;;;;6.60;2.60;;;;;;;26.31;45.31;102035.56;4973902;28;20393;-75
2022/09/05 09:10:52;;;;;;;2.75;2.00;;;;;;;26.56;44.56;102033.41;4972302;28;20047;-75
2022/09/05 09:13:50;;;;;;;4.57;2.40;;;;;;;26.81;43.22;102029.25;4973600;28;20523;-76
2022/09/05 09:16:47;;;;;;;6.53;1.90;;;;;;;26.99;42.22;102021.53;4972798;28;20051;-76
2022/09/05 09:19:38;;;;;;;2.40;2.10;;;;;;;27.13;40.94;102021.03;4973570;28;20051;-75
2022/09/05 09:22:46;;;;;;;4.60;2.00;;;;;;;27.23;41.95;102018.59;4973592;28;20047;-76
2022/09/05 09:25:19;;;;;;;4.70;1.90;;;;;;;27.32;39.16;102020.91;4977502;28;20051;-76
2022/09/05 09:28:10;;;;;;;13.10;2.65;;;;;;;27.46;38.61;102018.91;4971482;28;20071;-75
2022/09/05 09:31:20;;;;;;;5.18;2.05;;;;;;;27.63;37.99;102015.84;4973556;28;20055;-75
2022/09/05 09:34:17;;;;;;;3.72;2.00;;;;;;;27.75;39.50;102011.59;4973988;28;20536;-76
2022/09/05 09:36:50;;;;;;;2.50;2.00;;;;;;;27.83;38.98;102004.97;4973646;28;20919;-76
2022/09/05 09:39:41;;;;;;;7.30;2.10;;;;;;;28.04;39.36;102004.97;4973740;28;20102;-76
2022/09/05 09:42:26;;;;;;;4.53;2.03;;;;;;;28.18;38.86;102002.91;4973077;28;20078;-77
2022/09/05 09:45:23;;;;;;;3.22;2.03;;;;;;;28.30;38.50;102003.44;4972368;28;20094;-78
2022/09/05 09:48:11;;;;;;;2.28;2.17;;;;;;;28.55;38.26;101999.06;4972406;28;20103;-77
2022/09/05 09:51:08;;;;;;;2.22;2.05;;;;;;;28.67;37.65;101997.50;4973286;28;20142;-76
2022/09/05 09:54:04;;;;;;;4.65;2.10;;;;;;;28.70;37.78;101996.44;4973084;28;20051;-75
2022/09/05 09:57:08;;;;;;;5.07;2.00;;;;;;;28.76;36.01;101991.56;4971768;28;20039;-74
2022/09/05 09:59:59;;;;;;;3.00;1.88;;;;;;;28.78;36.73;101978.03;4972955;28;20557;-77
2022/09/05 10:03:03;;;;;;;9.25;2.08;;;;;;;28.82;36.13;101977.72;4972864;28;20066;-76
2022/09/05 10:06:24;;;;;;;3.58;1.80;;;;;;;29.00;35.31;101978.72;4973066;28;20139;-77
2022/09/05 10:09:46;;;;;;;4.25;1.90;;;;;;;29.08;35.53;101976.75;4971926;28;20114;-76
2022/09/05 10:13:18;;;;;;;2.00;1.83;;;;;;;29.28;34.78;101972.47;4958246;28;20062;-76
2022/09/05 10:16:00;;;;;;;4.88;1.80;;;;;;;29.41;35.18;101975.09;4973144;28;20109;-76
2022/09/05 10:18:41;;;;;;;12.15;2.42;;;;;;;29.49;33.14;101973.13;4971269;28;20523;-78
2022/09/05 10:21:34;;;;;;;8.65;1.92;;;;;;;29.47;33.40;101967.44;4971885;28;20043;-74
2022/09/05 10:24:31;;;;;;;2.17;1.60;;;;;;;29.58;32.77;101975.34;4972547;28;20059;-75
2022/09/05 10:27:06;;;;;;;1.75;1.65;;;;;;;29.58;31.30;101963.66;4972102;28;20127;-76
2022/09/05 10:29:44;;;;;;;2.15;1.70;;;;;;;29.64;31.89;101964.91;4972776;28;20055;-77
2022/09/05 10:32:19;;;;;;;1.80;1.70;;;;;;;29.81;31.41;101959.66;4972807;28;20095;-75
2022/09/05 10:35:20;;;;;;;4.60;1.80;;;;;;;29.81;31.66;101961.66;4972671;28;20047;-74
2022/09/05 10:37:55;;;;;;;1.92;1.80;;;;;;;29.70;31.12;101948.28;4978715;28;20460;-77
2022/09/05 10:40:25;;;;;;;5.50;2.20;;;;;;;29.66;31.96;101956.13;4978817;28;20049;-73
2022/09/05 10:42:57;;;;;;;2.35;2.00;;;;;;;29.77;31.49;101955.81;4977747;28;20048;-74
2022/09/05 10:45:37;;;;;;;3.78;1.75;;;;;;;29.84;33.07;101955.09;4976669;28;20126;-73
2022/09/05 10:48:36;;;;;;;3.47;2.10;;;;;;;29.92;32.04;101955.09;4978297;28;20106;-74
2022/09/05 10:51:10;;;;;;;3.53;1.88;;;;;;;29.96;32.67;101949.97;4978059;28;20054;-74
2022/09/05 10:54:09;;;;;;;3.65;1.80;;;;;;;30.11;32.01;101945.25;4976202;28;20491;-75
2022/09/05 10:56:44;;;;;;;7.35;1.70;;;;;;;30.02;30.12;101951.28;4977202;28;20413;-75
2022/09/05 10:59:46;;;;;;;2.15;1.67;;;;;;;29.97;31.47;101956.94;4977651;28;20062;-74
2022/09/05 11:02:40;;;;;;;5.20;1.75;;;;;;;30.02;30.56;101954.03;4966687;28;20059;-74
2022/09/05 11:05:14;;;;;;;5.45;1.60;;;;;;;30.09;30.59;101947.81;4976717;28;20500;-73
2022/09/05 11:07:58;;;;;;;2.05;1.70;;;;;;;30.16;32.68;101935.38;4992323;28;20134;-74
2022/09/05 11:10:54;;;;;;;1.35;1.30;;;;;;;30.31;31.41;101940.13;4978194;28;20047;-74
2022/09/05 11:13:22;;;;;;;1.60;1.30;;;;;;;30.24;29.65;101947.09;4978662;28;20051;-74
2022/09/05 11:16:01;;;;;;;1.48;1.10;;;;;;;29.93;30.48;101945.59;4977094;28;20047;-75
2022/09/05 11:18:51;;;;;;;1.40;1.35;;;;;;;29.84;30.81;101935.88;4959937;28;20048;-75
2022/09/05 11:21:59;;;;;;;7.55;1.77;;;;;;;30.04;30.47;101939.75;4971023;28;20055;-75
2022/09/05 11:24:57;;;;;;;3.17;1.40;;;;;;;29.97;30.45;101932.25;4962332;28;20079;-75
2022/09/05 11:27:46;;;;;;;1.40;1.40;;;;;;;29.90;32.07;101938.44;4992559;28;20040;-75
2022/09/05 11:30:26;;;;;;;2.13;1.58;;;;;;;29.99;30.88;101935.91;4976416;28;20055;-75
2022/09/05 11:33:19;;;;;;;3.85;1.67;;;;;;;29.94;30.58;101936.81;4978464;28;20047;-75
2022/09/05 11:36:22;;;;;;;1.88;1.50;;;;;;;30.05;31.23;101930.97;4976996;28;20090;-74
2022/09/05 11:39:14;;;;;;;2.35;1.80;;;;;;;30.19;31.49;101939.75;4975922;28;20477;-75
2022/09/05 11:42:10;;;;;;;1.88;1.77;;;;;;;30.18;30.46;101933.53;4978321;28;20110;-74
2022/09/05 11:44:57;;;;;;;1.88;1.77;;;;;;;30.17;31.15;101937.56;4978240;28;20460;-75
2022/09/05 11:47:54;;;;;;;4.13;1.90;;;;;;;30.13;31.95;101942.69;4977309;28;20576;-75
2022/09/05 11:50:45;;;;;;;3.42;1.70;;;;;;;30.15;31.14;101929.13;4973720;28;20510;-75
2022/09/05 11:53:39;;;;;;;;;;;;;;;30.25;32.23;101925.84;4973779;28;20147;-75
2022/09/05 11:56:34;;;;;;;1.80;1.70;;;;;;;30.16;32.09;101933.34;4989565;28;19926;-75
2022/09/05 11:59:25;;;;;;;1.50;1.40;;;;;;;30.07;30.60;101928.41;4974695;28;20055;-73
2022/09/05 12:02:37;;;;;;;5.20;1.77;;;;;;;30.00;32.19;101915.41;4974835;28;20069;-74
2022/09/05 12:05:32;;;;;;;5.13;1.90;;;;;;;30.01;31.67;101914.13;4973038;28;20123;-73
2022/09/05 12:08:36;;;;;;;2.08;1.90;;;;;;;29.99;32.02;101913.22;4974589;28;20044;-73
2022/09/05 12:11:25;;;;;;;4.00;1.90;;;;;;;30.03;32.31;101911.56;4973479;28;20134;-74
2022/09/05 12:14:23;;;;;;;2.95;2.05;;;;;;;30.03;32.64;101911.56;4973146;28;20055;-74
2022/09/05 12:16:54;;;;;;;2.00;1.90;;;;;;;29.86;31.62;101908.63;4974488;28;20051;-74
2022/09/05 12:19:33;;;;;;;2.42;1.73;;;;;;;29.78;32.01;101910.63;4974137;28;20067;-73
2022/09/05 12:22:21;;;;;;;1.70;1.60;;;;;;;29.61;32.61;101913.88;4973982;28;20472;-76
2022/09/05 12:25:17;;;;;;;2.45;1.90;;;;;;;29.63;33.29;101921.56;4972632;28;20069;-75
2022/09/05 12:28:10;;;;;;;1.75;1.70;;;;;;;29.51;31.86;101910.22;4974265;28;20530;-75
2022/09/05 12:31:20;;;;;;;2.17;1.98;;;;;;;29.52;32.31;101909.69;4974224;28;20130;-75
2022/09/05 12:34:12;;;;;;;4.73;1.70;;;;;;;29.38;31.93;101908.34;4986860;28;20078;-75
2022/09/05 12:37:02;;;;;;;;;;;;;;;29.40;33.17;101914.00;4974309;28;20044;-75
2022/09/05 12:40:08;;;;;;;2.60;1.60;;;;;;;29.30;32.57;101910.31;4972786;28;19978;-75
2022/09/05 12:42:59;;;;;;;1.88;1.77;;;;;;;29.19;34.26;101914.09;4974140;28;20122;-75
2022/09/05 12:46:07;;;;;;;1.80;1.70;;;;;;;29.28;32.95;101907.38;4973313;28;20110;-75
2022/09/05 12:48:51;;;;;;;2.30;2.10;;;;;;;29.37;34.76;101903.38;4974379;28;20151;-75
2022/09/05 12:51:20;;;;;;;2.78;1.80;;;;;;;29.44;32.68;101906.19;4972929;28;20043;-75
2022/09/05 12:54:21;;;;;;;3.15;2.10;;;;;;;29.47;33.38;101898.88;4974048;28;20107;-75
2022/09/05 12:57:06;;;;;;;5.53;1.92;;;;;;;29.29;32.96;101902.63;4974200;28;20051;-75
2022/09/05 13:00:02;;;;;;;2.17;1.95;;;;;;;29.17;33.70;101900.25;4973513;28;20087;-75
2022/09/05 13:02:52;;;;;;;3.92;2.00;;;;;;;29.06;32.80;101894.34;4973511;28;20050;-74
2022/09/05 13:06:13;;;;;;;5.15;2.22;;;;;;;28.92;34.89;101899.22;4971311;28;20547;-76
2022/09/05 13:08:59;;;;;;;7.60;2.17;;;;;;;28.82;33.07;101904.47;4964806;28;20089;-76
2022/09/05 13:11:28;;;;;;;2.10;2.00;;;;;;;28.74;34.70;101900.94;4973825;28;20097;-76